createdAt,value
2019-03-25T00:01:59.544Z,98923.90
2019-03-25T00:04:28.695Z,98917.58
2019-03-25T00:06:57.719Z,98931.39
2019-03-25T00:09:26.809Z,98923.48
2019-03-25T00:11:55.741Z,98925.91
2019-03-25T00:14:24.817Z,98922.78
2019-03-25T00:16:54.293Z,98920.95
2019-03-25T00:19:23.094Z,98919.07
2019-03-25T00:21:52.370Z,98925.39
2019-03-25T00:24:21.419Z,98910.67
2019-03-25T00:26:50.604Z,98907.34
2019-03-25T00:29:19.513Z,98915.64
2019-03-25T00:31:48.868Z,98919.20
2019-03-25T00:34:17.736Z,98921.64
2019-03-25T00:36:46.935Z,98918.27
2019-03-25T00:39:16.137Z,98921.73
2019-03-25T00:41:45.191Z,98920.91
2019-03-25T00:44:14.020Z,98910.80
2019-03-25T00:46:42.963Z,98914.16
2019-03-25T00:49:11.909Z,98913.40
2019-03-25T00:51:41.126Z,98902.57
2019-03-25T00:54:09.996Z,98915.06
2019-03-25T00:56:39.198Z,98913.17
2019-03-25T00:59:08.616Z,98913.13
2019-03-25T01:01:37.773Z,98920.38
2019-03-25T01:04:06.604Z,98918.09
2019-03-25T01:06:35.874Z,98913.86
2019-03-25T01:09:06.210Z,98915.59
2019-03-25T01:11:35.203Z,98916.14
2019-03-25T01:14:04.034Z,98907.38
2019-03-25T01:16:33.159Z,98896.52
2019-03-25T01:19:02.120Z,98906.66
2019-03-25T01:21:31.327Z,98908.50
2019-03-25T01:24:00.138Z,98914.64
2019-03-25T01:26:29.064Z,98907.44
2019-03-25T01:28:58.088Z,98912.98
2019-03-25T01:31:26.975Z,98917.44
2019-03-25T01:33:55.789Z,98912.75
2019-03-25T01:36:25.721Z,98913.69
2019-03-25T01:38:54.971Z,98905.84
2019-03-25T01:41:24.473Z,98908.61
2019-03-25T01:43:53.602Z,98903.64
2019-03-25T01:46:22.482Z,98900.14
2019-03-25T01:48:51.328Z,98905.05
2019-03-25T01:51:20.124Z,98902.48
2019-03-25T01:53:49.169Z,98908.05
2019-03-25T01:56:17.978Z,98914.79
2019-03-25T01:58:47.206Z,98905.65
2019-03-25T02:01:17.080Z,98905.16
2019-03-25T02:03:45.990Z,98909.08
2019-03-25T02:06:14.889Z,98903.92
2019-03-25T02:08:44.080Z,98902.70
2019-03-25T02:11:12.940Z,98903.16
2019-03-25T02:13:41.842Z,98907.39
2019-03-25T02:16:10.842Z,98910.06
2019-03-25T02:18:41.148Z,98910.11
2019-03-25T02:21:09.936Z,98911.91
2019-03-25T02:23:38.756Z,98909.00
2019-03-25T02:26:07.635Z,98913.23
2019-03-25T02:28:36.429Z,98909.98
2019-03-25T02:31:05.230Z,98914.51
2019-03-25T02:33:34.012Z,98902.45
2019-03-25T02:36:04.328Z,98906.69
2019-03-25T02:38:33.771Z,98899.29
2019-03-25T02:41:02.948Z,98893.88
2019-03-25T02:43:31.756Z,98892.78
2019-03-25T02:46:00.897Z,98893.22
2019-03-25T02:48:29.765Z,98898.16
2019-03-25T02:50:58.610Z,98898.67
2019-03-25T02:53:27.451Z,98899.44
2019-03-25T02:55:56.526Z,98893.28
2019-03-25T02:58:25.417Z,98893.44
2019-03-25T03:00:54.409Z,98892.85
2019-03-25T03:03:23.731Z,98895.70
2019-03-25T03:05:52.599Z,98890.50
2019-03-25T03:08:21.430Z,98895.53
2019-03-25T03:10:50.545Z,98906.89
2019-03-25T03:13:19.445Z,98900.44
2019-03-25T03:15:48.233Z,98893.86
2019-03-25T03:18:17.188Z,98894.01
2019-03-25T03:20:46.125Z,98891.30
2019-03-25T03:23:15.097Z,98895.97
2019-03-25T03:25:56.401Z,98894.27
2019-03-25T03:28:14.690Z,98888.70
2019-03-25T03:30:43.917Z,98891.09
2019-03-25T03:33:12.945Z,98890.86
2019-03-25T03:35:41.889Z,98891.98
2019-03-25T03:38:10.671Z,98891.09
2019-03-25T03:40:39.483Z,98892.64
2019-03-25T03:43:08.284Z,98895.49
2019-03-25T03:45:37.134Z,98893.70
2019-03-25T03:48:05.974Z,98890.80
2019-03-25T03:50:35.296Z,98888.98
2019-03-25T03:53:04.126Z,98894.78
2019-03-25T03:55:33.062Z,98890.94
2019-03-25T03:58:03.369Z,98889.96
2019-03-25T04:00:35.515Z,98884.98
2019-03-25T04:03:04.607Z,98885.14
2019-03-25T04:05:33.389Z,98882.97
2019-03-25T04:08:03.291Z,98893.95
2019-03-25T04:10:32.371Z,98882.37
2019-03-25T04:13:01.130Z,98888.00
2019-03-25T04:15:31.438Z,98891.09
2019-03-25T04:18:00.388Z,98880.72
2019-03-25T04:20:29.283Z,98890.02
2019-03-25T04:22:58.093Z,98886.53
2019-03-25T04:25:27.460Z,98884.41
2019-03-25T04:27:57.288Z,98889.27
2019-03-25T04:30:26.283Z,98894.09
2019-03-25T04:32:55.146Z,98896.03
2019-03-25T04:35:23.907Z,98896.44
2019-03-25T04:37:56.201Z,98896.39
2019-03-25T04:40:23.863Z,98897.09
2019-03-25T04:42:52.852Z,98900.30
2019-03-25T04:45:21.849Z,98905.80
2019-03-25T04:47:50.668Z,98908.84
2019-03-25T04:50:19.863Z,98907.21
2019-03-25T04:52:48.744Z,98901.58
2019-03-25T04:55:17.750Z,98902.95
2019-03-25T04:57:46.890Z,98899.42
2019-03-25T05:00:17.676Z,98899.29
2019-03-25T05:02:46.493Z,98904.22
2019-03-25T05:05:15.458Z,98904.48
2019-03-25T05:07:44.293Z,98900.52
2019-03-25T05:10:13.103Z,98903.58
2019-03-25T05:12:41.936Z,98894.45
2019-03-25T05:15:10.774Z,98888.42
2019-03-25T05:17:39.619Z,98894.14
2019-03-25T05:20:08.430Z,98886.93
2019-03-25T05:22:37.399Z,98892.69
2019-03-25T05:25:06.356Z,98889.91
2019-03-25T05:27:35.170Z,98884.33
2019-03-25T05:30:04.303Z,98890.17
2019-03-25T05:32:33.332Z,98883.70
2019-03-25T05:35:02.166Z,98885.11
2019-03-25T05:37:31.202Z,98886.05
2019-03-25T05:39:59.972Z,98888.52
2019-03-25T05:42:28.983Z,98887.72
2019-03-25T05:44:57.825Z,98888.89
2019-03-25T05:47:26.647Z,98888.42
2019-03-25T05:49:55.544Z,98888.11
2019-03-25T05:52:24.465Z,98884.23
2019-03-25T05:54:53.326Z,98888.41
2019-03-25T05:57:22.451Z,98890.21
2019-03-25T05:59:51.760Z,98886.64
2019-03-25T06:02:20.670Z,98888.61
2019-03-25T06:04:49.498Z,98890.63
2019-03-25T06:07:18.837Z,98890.19
2019-03-25T06:09:47.795Z,98892.16
2019-03-25T06:12:16.890Z,98893.13
2019-03-25T06:14:46.142Z,98893.25
2019-03-25T06:17:15.539Z,98893.45
2019-03-25T06:19:44.449Z,98892.56
2019-03-25T06:22:13.222Z,98887.72
2019-03-25T06:24:42.072Z,98890.48
2019-03-25T06:27:14.403Z,98887.53
2019-03-25T06:29:42.108Z,98887.11
2019-03-25T06:32:11.215Z,98894.45
2019-03-25T06:34:39.984Z,98884.17
2019-03-25T06:37:08.774Z,98888.94
2019-03-25T06:39:38.142Z,98886.77
2019-03-25T06:42:06.942Z,98889.66
2019-03-25T06:44:35.740Z,98890.11
2019-03-25T06:47:04.754Z,98892.70
2019-03-25T06:49:33.507Z,98880.73
2019-03-25T06:52:02.555Z,98883.27
2019-03-25T06:54:31.601Z,98885.09
2019-03-25T06:57:00.502Z,98880.72
2019-03-25T06:59:31.032Z,98879.70
2019-03-25T07:01:59.798Z,98887.47
2019-03-25T07:04:29.160Z,98880.85
2019-03-25T07:06:58.109Z,98882.94
2019-03-25T07:09:27.189Z,98887.81
2019-03-25T07:11:56.065Z,98894.13
2019-03-25T07:14:24.851Z,98897.88
2019-03-25T07:16:53.991Z,98902.00
2019-03-25T07:19:22.761Z,98893.89
2019-03-25T07:21:51.547Z,98893.73
2019-03-25T07:24:20.812Z,98889.07
2019-03-25T07:26:49.626Z,98888.30
2019-03-25T07:29:18.779Z,98887.97
2019-03-25T07:31:47.563Z,98876.44
2019-03-25T07:34:16.341Z,98877.61
2019-03-25T07:36:45.159Z,98867.79
2019-03-25T07:39:13.946Z,98859.65
2019-03-25T07:41:42.763Z,98858.38
2019-03-25T07:44:11.539Z,98856.85
2019-03-25T07:46:40.316Z,98852.91
2019-03-25T07:49:10.885Z,98860.27
2019-03-25T07:51:39.779Z,98854.15
2019-03-25T07:54:08.874Z,98858.27
2019-03-25T07:56:37.665Z,98868.56
2019-03-25T07:59:06.739Z,98857.06
2019-03-25T08:01:35.558Z,98867.75
2019-03-25T08:04:04.581Z,98870.91
2019-03-25T08:06:33.441Z,98875.27
2019-03-25T08:09:04.016Z,98869.38
2019-03-25T08:11:33.246Z,98871.26
2019-03-25T08:14:02.125Z,98874.58
2019-03-25T08:16:31.466Z,98871.39
2019-03-25T08:19:00.276Z,98871.25
2019-03-25T08:21:29.570Z,98872.64
2019-03-25T08:23:58.434Z,98867.47
2019-03-25T08:26:27.268Z,98854.62
2019-03-25T08:28:56.452Z,98865.80
2019-03-25T08:31:25.332Z,98865.45
2019-03-25T08:33:54.146Z,98864.13
2019-03-25T08:36:22.894Z,98860.36
2019-03-25T08:38:51.716Z,98863.16
2019-03-25T08:41:20.818Z,98855.69
2019-03-25T08:43:50.471Z,98854.59
2019-03-25T08:46:19.527Z,98859.17
2019-03-25T08:48:48.566Z,98861.38
2019-03-25T08:51:17.789Z,98868.45
2019-03-25T08:53:46.592Z,98865.64
2019-03-25T08:56:15.444Z,98862.09
2019-03-25T08:58:44.492Z,98861.11
2019-03-25T09:01:13.899Z,98863.81
2019-03-25T09:03:42.727Z,98876.56
2019-03-25T09:06:11.578Z,98869.53
2019-03-25T09:08:40.385Z,98880.48
2019-03-25T09:11:09.444Z,98886.52
2019-03-25T09:13:38.283Z,98881.63
2019-03-25T09:16:17.569Z,98873.45
2019-03-25T09:18:46.379Z,98876.20
2019-03-25T09:21:15.285Z,98875.91
2019-03-25T09:23:44.155Z,98879.97
2019-03-25T09:26:12.736Z,98870.59
2019-03-25T09:28:41.679Z,98866.47
2019-03-25T09:31:15.856Z,98861.27
2019-03-25T09:33:45.591Z,98869.36
2019-03-25T09:36:15.846Z,98871.48
2019-03-25T09:38:47.448Z,98844.24
2019-03-25T09:41:16.337Z,98865.26
2019-03-25T09:43:45.169Z,98880.83
2019-03-25T09:46:14.309Z,98870.09
2019-03-25T09:48:43.123Z,98847.31
2019-03-25T09:51:11.972Z,98868.83
2019-03-25T09:53:40.959Z,98856.87
2019-03-25T09:56:10.038Z,98875.89
2019-03-25T09:58:39.180Z,98865.81
2019-03-25T10:01:08.986Z,98863.69
2019-03-25T10:03:37.770Z,98898.80
2019-03-25T10:06:06.887Z,98866.07
2019-03-25T10:08:37.249Z,98868.52
2019-03-25T10:11:06.163Z,98879.22
2019-03-25T10:13:34.947Z,98879.92
2019-03-25T10:16:03.873Z,98881.53
2019-03-25T10:18:32.689Z,98874.45
2019-03-25T10:21:01.902Z,98884.12
2019-03-25T10:23:31.148Z,98883.70
2019-03-25T10:26:00.189Z,98879.47
2019-03-25T10:28:29.282Z,98887.96
2019-03-25T10:30:59.535Z,98882.23
2019-03-25T10:33:28.909Z,98882.20
2019-03-25T10:35:57.663Z,98897.02
2019-03-25T10:38:26.570Z,98886.83
2019-03-25T10:40:55.401Z,98920.23
2019-03-25T10:43:24.354Z,98879.91
2019-03-25T10:45:53.601Z,98871.98
2019-03-25T10:48:22.450Z,98876.36
2019-03-25T10:50:51.372Z,98871.88
2019-03-25T10:53:20.317Z,98863.38
2019-03-25T10:55:49.165Z,98852.97
2019-03-25T10:58:18.292Z,98863.09
2019-03-25T11:00:47.090Z,98860.50
2019-03-25T11:03:16.277Z,98860.25
2019-03-25T11:05:45.141Z,98854.26
2019-03-25T11:08:13.959Z,98856.05
2019-03-25T11:10:42.883Z,98870.78
2019-03-25T11:13:12.143Z,98842.40
2019-03-25T11:15:41.036Z,98856.83
2019-03-25T11:18:10.248Z,98841.36
2019-03-25T11:20:39.093Z,98842.00
2019-03-25T11:23:08.325Z,98823.62
2019-03-25T11:25:37.123Z,98865.66
2019-03-25T11:28:05.968Z,98848.13
2019-03-25T11:30:55.723Z,98877.53
2019-03-25T11:33:24.516Z,98855.18
2019-03-25T11:35:53.325Z,98851.10
2019-03-25T11:38:22.267Z,98846.45
2019-03-25T11:40:51.825Z,98831.34
2019-03-25T11:43:20.821Z,98837.70
2019-03-25T11:45:49.577Z,98859.98
2019-03-25T11:48:18.954Z,98874.08
2019-03-25T11:50:47.871Z,98870.01
2019-03-25T11:53:17.608Z,98873.89
2019-03-25T11:55:46.683Z,98862.13
2019-03-25T11:58:15.955Z,98864.66
2019-03-25T12:00:45.139Z,98854.60
2019-03-25T12:03:13.917Z,98849.67
2019-03-25T12:05:42.975Z,98846.34
2019-03-25T12:08:11.771Z,98846.97
2019-03-25T12:10:40.581Z,98829.94
2019-03-25T12:13:09.712Z,98831.69
2019-03-25T12:15:38.771Z,98821.28
2019-03-25T12:18:07.583Z,98832.20
2019-03-25T12:20:36.429Z,98880.95
2019-03-25T12:23:05.877Z,98838.89
2019-03-25T12:25:35.068Z,98857.66
2019-03-25T12:28:04.025Z,98881.56
2019-03-25T12:30:32.888Z,98855.56
2019-03-25T12:33:04.204Z,98849.01
2019-03-25T12:35:32.990Z,98840.99
2019-03-25T12:38:01.813Z,98833.76
2019-03-25T12:40:30.807Z,98826.20
2019-03-25T12:42:59.651Z,98820.29
2019-03-25T12:45:28.620Z,98812.30
2019-03-25T12:47:58.461Z,98809.53
2019-03-25T12:50:27.756Z,98812.02
2019-03-25T12:52:57.679Z,98861.45
2019-03-25T12:55:27.283Z,98897.14
2019-03-25T12:57:56.215Z,98930.72
2019-03-25T13:00:44.443Z,98928.79
2019-03-25T13:03:13.668Z,98912.25
2019-03-25T13:05:42.747Z,98913.03
2019-03-25T13:08:11.757Z,98882.41
2019-03-25T13:10:41.214Z,98872.80
2019-03-25T13:13:10.069Z,98863.70
2019-03-25T13:15:39.946Z,98845.38
2019-03-25T13:18:08.777Z,98838.83
2019-03-25T13:20:37.908Z,98838.36
2019-03-25T13:23:06.792Z,98830.29
2019-03-25T13:25:35.621Z,98827.83
2019-03-25T13:28:04.448Z,98820.09
2019-03-25T13:30:34.944Z,98817.58
2019-03-25T13:33:04.242Z,98810.19
2019-03-25T13:35:33.140Z,98804.11
2019-03-25T13:38:02.160Z,98793.83
2019-03-25T13:40:31.382Z,98803.34
2019-03-25T13:43:00.245Z,98796.48
2019-03-25T13:45:31.949Z,98788.83
2019-03-25T13:48:01.822Z,98783.30
2019-03-25T13:50:31.117Z,98780.67
2019-03-25T13:52:59.998Z,98781.84
2019-03-25T13:55:28.879Z,98770.25
2019-03-25T13:57:57.917Z,98777.08
2019-03-25T14:00:41.795Z,98782.04
2019-03-25T14:03:10.965Z,98788.72
2019-03-25T14:05:39.874Z,98785.86
2019-03-25T14:08:08.882Z,98804.19
2019-03-25T14:10:38.078Z,98815.52
2019-03-25T14:13:06.966Z,98821.06
2019-03-25T14:15:36.046Z,98900.22
2019-03-25T14:18:04.813Z,98903.59
2019-03-25T14:20:34.074Z,98945.70
2019-03-25T14:23:02.994Z,98962.48
2019-03-25T14:25:32.469Z,98963.58
2019-03-25T14:28:01.344Z,98959.70
2019-03-25T14:30:30.176Z,98944.29
2019-03-25T14:33:03.534Z,98952.99
2019-03-25T14:35:32.498Z,98935.75
2019-03-25T14:38:01.605Z,98932.00
2019-03-25T14:40:30.634Z,98939.81
2019-03-25T14:43:00.292Z,98914.46
2019-03-25T14:45:29.475Z,98902.42
2019-03-25T14:47:58.540Z,98896.72
2019-03-25T14:50:27.311Z,98899.05
2019-03-25T14:52:57.524Z,98892.92
2019-03-25T14:55:26.554Z,98898.02
2019-03-25T14:57:55.409Z,98897.33
2019-03-25T15:00:25.657Z,98891.13
2019-03-25T15:02:55.311Z,98889.13
2019-03-25T15:05:24.742Z,98886.95
2019-03-25T15:07:53.531Z,98883.91
2019-03-25T15:10:22.311Z,98880.06
2019-03-25T15:12:51.317Z,98870.84
2019-03-25T15:15:20.189Z,98864.30
2019-03-25T15:17:49.269Z,98876.66
2019-03-25T15:20:19.506Z,98880.29
2019-03-25T15:22:48.298Z,98895.73
2019-03-25T15:25:17.573Z,98888.87
2019-03-25T15:27:46.518Z,98888.52
2019-03-25T15:30:15.785Z,98886.84
2019-03-25T15:32:44.677Z,98891.25
2019-03-25T15:35:13.510Z,98885.88
2019-03-25T15:37:42.634Z,98896.09
2019-03-25T15:40:11.792Z,98898.22
2019-03-25T15:42:40.984Z,98903.00
2019-03-25T15:45:09.856Z,98898.03
2019-03-25T15:47:39.272Z,98904.74
2019-03-25T15:50:09.548Z,98911.63
2019-03-25T15:52:38.611Z,98902.31
2019-03-25T15:55:10.629Z,98899.55
2019-03-25T15:57:39.997Z,98894.98
2019-03-25T16:00:14.747Z,98893.53
2019-03-25T16:02:43.561Z,98906.02
2019-03-25T16:05:12.809Z,98904.73
2019-03-25T16:07:42.054Z,98895.14
2019-03-25T16:10:11.033Z,98892.33
2019-03-25T16:12:40.322Z,98892.69
2019-03-25T16:15:09.262Z,98894.33
2019-03-25T16:17:38.052Z,98893.30
2019-03-25T16:20:07.182Z,98900.32
2019-03-25T16:22:36.184Z,98912.38
2019-03-25T16:25:05.081Z,98912.53
2019-03-25T16:27:33.865Z,98914.33
2019-03-25T16:30:03.896Z,98917.61
2019-03-25T16:32:32.845Z,98926.14
2019-03-25T16:35:01.639Z,98938.03
2019-03-25T16:37:30.811Z,98931.47
2019-03-25T16:39:59.750Z,98954.06
2019-03-25T16:42:28.520Z,98968.19
2019-03-25T16:44:57.329Z,98971.20
2019-03-25T16:47:26.437Z,98979.73
2019-03-25T16:49:55.594Z,98982.54
2019-03-25T16:52:24.494Z,98990.77
2019-03-25T16:54:53.400Z,98991.78
2019-03-25T16:57:22.178Z,98998.81
2019-03-25T16:59:51.039Z,98994.71
2019-03-25T17:02:21.255Z,98977.59
2019-03-25T17:04:50.433Z,98980.55
2019-03-25T17:07:19.319Z,98987.92
2019-03-25T17:09:48.542Z,98993.78
2019-03-25T17:12:17.380Z,99005.73
2019-03-25T17:14:46.418Z,99001.59
2019-03-25T17:17:15.247Z,99006.28
2019-03-25T17:19:44.095Z,99000.60
2019-03-25T17:22:12.930Z,99000.13
2019-03-25T17:24:42.059Z,99013.43
2019-03-25T17:27:11.126Z,99018.59
2019-03-25T17:29:39.983Z,99017.47
2019-03-25T17:32:08.944Z,99018.02
2019-03-25T17:34:37.818Z,99019.38
2019-03-25T17:37:08.264Z,99019.44
2019-03-25T17:39:37.828Z,99015.24
2019-03-25T17:42:07.172Z,99014.53
2019-03-25T17:44:36.473Z,99021.25
2019-03-25T17:47:05.924Z,99020.17
2019-03-25T17:49:35.179Z,99018.77
2019-03-25T17:52:05.498Z,99012.25
2019-03-25T17:54:34.275Z,99018.30
2019-03-25T17:57:03.108Z,99016.23
2019-03-25T17:59:31.560Z,99015.65
2019-03-25T18:02:00.455Z,99022.07
2019-03-25T18:04:29.330Z,99022.48
2019-03-25T18:06:58.221Z,99020.75
2019-03-25T18:09:27.215Z,99025.34
2019-03-25T18:11:56.724Z,99032.75
2019-03-25T18:14:25.976Z,99027.78
2019-03-25T18:16:54.974Z,99025.03
2019-03-25T18:19:23.935Z,99028.48
2019-03-25T18:21:53.146Z,99026.64
2019-03-25T18:24:22.064Z,99030.42
2019-03-25T18:26:50.938Z,99032.00
2019-03-25T18:29:19.706Z,99034.04
2019-03-25T18:31:51.123Z,99036.98
2019-03-25T18:34:20.000Z,99039.80
2019-03-25T18:36:49.964Z,99044.83
2019-03-25T18:39:19.077Z,99051.17
2019-03-25T18:41:48.169Z,99052.59
2019-03-25T18:44:17.298Z,99055.45
2019-03-25T18:46:46.197Z,99059.86
2019-03-25T18:49:15.450Z,99071.50
2019-03-25T18:51:44.606Z,99073.97
2019-03-25T18:54:13.589Z,99074.67
2019-03-25T18:56:42.397Z,99074.67
2019-03-25T18:59:11.862Z,99081.19
2019-03-25T19:01:40.934Z,99079.79
2019-03-25T19:04:09.871Z,99087.02
2019-03-25T19:06:41.918Z,99093.36
2019-03-25T19:09:10.751Z,99095.27
2019-03-25T19:11:39.566Z,99089.08
2019-03-25T19:14:08.422Z,99091.99
2019-03-25T19:16:37.417Z,99092.82
2019-03-25T19:19:06.207Z,99091.11
2019-03-25T19:21:35.111Z,99100.46
2019-03-25T19:24:04.302Z,99087.95
2019-03-25T19:26:33.660Z,99094.47
2019-03-25T19:29:02.478Z,99097.34
2019-03-25T19:31:31.303Z,99101.17
2019-03-25T19:34:00.116Z,99104.20
2019-03-25T19:36:28.963Z,99108.03
2019-03-25T19:38:58.194Z,99112.40
2019-03-25T19:41:32.437Z,99115.98
2019-03-25T19:43:58.006Z,99113.56
2019-03-25T19:46:28.013Z,99110.30
2019-03-25T19:48:56.947Z,99125.06
2019-03-25T19:51:26.110Z,99129.41
2019-03-25T19:53:55.338Z,99127.30
2019-03-25T19:56:25.002Z,99131.95
2019-03-25T19:58:54.367Z,99136.52
2019-03-25T20:01:24.560Z,99149.75
2019-03-25T20:03:53.675Z,99132.39
2019-03-25T20:06:26.303Z,99142.77
2019-03-25T20:08:53.718Z,99150.60
2019-03-25T20:11:22.853Z,99159.77
2019-03-25T20:13:52.366Z,99167.02
2019-03-25T20:16:21.600Z,99171.76
2019-03-25T20:18:50.755Z,99178.55
2019-03-25T20:21:19.749Z,99189.52
2019-03-25T20:23:50.475Z,99187.64
2019-03-25T20:26:19.977Z,99193.43
2019-03-25T20:28:50.466Z,99183.55
2019-03-25T20:31:19.686Z,99187.02
2019-03-25T20:33:48.755Z,99188.13
2019-03-25T20:36:17.685Z,99193.30
2019-03-25T20:38:49.386Z,99197.78
2019-03-25T20:41:17.481Z,99202.52
2019-03-25T20:43:46.546Z,99204.34
2019-03-25T20:46:15.862Z,99206.67
2019-03-25T20:48:44.850Z,99217.50
2019-03-25T20:51:13.853Z,99206.47
2019-03-25T20:53:43.077Z,99208.69
2019-03-25T20:56:12.337Z,99210.21
2019-03-25T20:58:41.369Z,99209.63
2019-03-25T21:01:10.619Z,99206.09
2019-03-25T21:03:39.954Z,99211.27
2019-03-25T21:06:09.176Z,99212.47
2019-03-25T21:08:38.382Z,99217.49
2019-03-25T21:11:09.107Z,99213.53
2019-03-25T21:13:38.763Z,99220.12
2019-03-25T21:16:07.796Z,99222.77
2019-03-25T21:18:37.154Z,99217.30
2019-03-25T21:21:06.860Z,99228.26
2019-03-25T21:23:36.381Z,99235.11
2019-03-25T21:26:05.193Z,99238.16
2019-03-25T21:28:34.303Z,99234.64
2019-03-25T21:31:03.158Z,99240.41
2019-03-25T21:33:32.245Z,99231.25
2019-03-25T21:36:01.488Z,99240.31
2019-03-25T21:38:30.679Z,99258.30
2019-03-25T21:40:59.496Z,99259.44
2019-03-25T21:43:28.397Z,99260.74
2019-03-25T21:45:57.400Z,99255.06
2019-03-25T21:48:26.288Z,99266.90
2019-03-25T21:50:56.339Z,99271.31
2019-03-25T21:53:25.208Z,99272.90
2019-03-25T21:55:54.419Z,99278.19
2019-03-25T21:58:24.335Z,99268.34
2019-03-25T22:00:53.592Z,99277.03
2019-03-25T22:03:22.402Z,99277.06
2019-03-25T22:05:51.354Z,99281.00
2019-03-25T22:08:20.596Z,99274.02
2019-03-25T22:10:49.514Z,99281.62
2019-03-25T22:13:18.307Z,99272.09
2019-03-25T22:15:48.529Z,99275.78
2019-03-25T22:18:17.436Z,99280.25
2019-03-25T22:20:48.015Z,99283.75
2019-03-25T22:23:17.075Z,99289.50
2019-03-25T22:25:45.582Z,99296.37
2019-03-25T22:28:14.571Z,99298.05
2019-03-25T22:30:43.484Z,99295.34
2019-03-25T22:33:24.839Z,99287.05
2019-03-25T22:35:43.376Z,99300.50
2019-03-25T22:38:12.513Z,99303.14
2019-03-25T22:40:41.307Z,99304.88
2019-03-25T22:43:10.160Z,99303.67
2019-03-25T22:45:38.947Z,99301.41
2019-03-25T22:48:08.104Z,99298.73
2019-03-25T22:50:38.764Z,99308.36
2019-03-25T22:53:07.859Z,99308.98
2019-03-25T22:55:36.705Z,99319.83
2019-03-25T22:58:06.024Z,99323.53
2019-03-25T23:00:45.666Z,99328.19
2019-03-25T23:03:17.079Z,99334.24
2019-03-25T23:05:45.938Z,99327.72
2019-03-25T23:08:15.288Z,99340.13
2019-03-25T23:10:44.126Z,99346.40
2019-03-25T23:13:13.234Z,99336.30
2019-03-25T23:15:42.420Z,99337.48
2019-03-25T23:18:11.691Z,99339.69
2019-03-25T23:20:41.672Z,99339.06
2019-03-25T23:23:10.541Z,99348.95
2019-03-25T23:25:39.333Z,99345.87
2019-03-25T23:28:08.240Z,99350.13
2019-03-25T23:30:37.834Z,99346.22
2019-03-25T23:33:06.429Z,99356.06
2019-03-25T23:35:34.889Z,99356.16
2019-03-25T23:38:03.709Z,99356.62
2019-03-25T23:40:32.580Z,99358.21
2019-03-25T23:43:02.557Z,99360.45
2019-03-25T23:45:31.482Z,99356.31
2019-03-25T23:48:00.412Z,99367.56
2019-03-25T23:50:29.688Z,99360.05
2019-03-25T23:52:59.126Z,99364.61
2019-03-25T23:55:27.953Z,99365.27
2019-03-25T23:57:56.844Z,99368.75
